createdAt,value
2023-07-24T00:00:50.055Z,16.06
2023-07-24T00:03:17.287Z,16.06
2023-07-24T00:05:44.551Z,16.06
2023-07-24T00:08:11.708Z,16.05
2023-07-24T00:10:39.019Z,16.00
2023-07-24T00:13:06.492Z,16.00
2023-07-24T00:15:33.712Z,16.01
2023-07-24T00:18:00.936Z,16.04
2023-07-24T00:20:28.544Z,16.06
2023-07-24T00:22:55.675Z,16.07
2023-07-24T00:25:22.849Z,16.08
2023-07-24T00:27:50.007Z,16.08
2023-07-24T00:30:17.365Z,16.07
2023-07-24T00:32:44.668Z,16.09
2023-07-24T00:35:11.973Z,16.06
2023-07-24T00:37:39.232Z,16.03
2023-07-24T00:40:07.411Z,16.01
2023-07-24T00:42:34.560Z,15.99
2023-07-24T00:45:04.111Z,15.99
2023-07-24T00:47:33.225Z,15.98
2023-07-24T00:50:00.610Z,15.96
2023-07-24T00:52:27.796Z,15.93
2023-07-24T00:54:54.997Z,15.90
2023-07-24T00:57:22.299Z,15.88
2023-07-24T00:59:49.491Z,15.86
2023-07-24T01:02:16.687Z,15.86
2023-07-24T01:04:43.861Z,15.84
2023-07-24T01:07:11.052Z,15.82
2023-07-24T01:09:38.235Z,15.79
2023-07-24T01:12:12.313Z,15.75
2023-07-24T01:14:47.850Z,15.68
2023-07-24T01:17:22.024Z,15.63
2023-07-24T01:19:50.667Z,15.59
2023-07-24T01:22:30.137Z,15.56
2023-07-24T01:25:09.662Z,15.51
2023-07-24T01:27:36.857Z,15.46
2023-07-24T01:30:04.232Z,15.42
2023-07-24T01:32:31.713Z,15.41
2023-07-24T01:34:59.087Z,15.39
2023-07-24T01:37:26.275Z,15.35
2023-07-24T01:39:53.720Z,15.31
2023-07-24T01:42:20.897Z,15.28
2023-07-24T01:44:55.432Z,15.24
2023-07-24T01:47:22.847Z,15.25
2023-07-24T01:49:50.047Z,15.23
2023-07-24T01:52:17.225Z,15.22
2023-07-24T01:54:44.624Z,15.22
2023-07-24T01:57:11.821Z,15.22
2023-07-24T01:59:39.037Z,15.20
2023-07-24T02:02:06.312Z,15.18
2023-07-24T02:04:33.982Z,15.13
2023-07-24T02:07:01.190Z,15.08
2023-07-24T02:09:28.367Z,15.03
2023-07-24T02:11:55.620Z,14.99
2023-07-24T02:14:23.178Z,14.98
2023-07-24T02:16:50.628Z,14.94
2023-07-24T02:19:17.806Z,14.92
2023-07-24T02:21:45.468Z,14.93
2023-07-24T02:24:12.711Z,14.91
2023-07-24T02:26:39.983Z,14.92
2023-07-24T02:29:07.183Z,14.92
2023-07-24T02:31:35.227Z,14.92
2023-07-24T02:34:02.419Z,14.91
2023-07-24T02:36:29.978Z,14.90
2023-07-24T02:38:57.371Z,14.88
2023-07-24T02:41:24.611Z,14.86
2023-07-24T02:43:51.924Z,14.86
2023-07-24T02:46:20.157Z,14.84
2023-07-24T02:48:47.359Z,14.85
2023-07-24T02:51:14.531Z,14.88
2023-07-24T02:53:41.760Z,14.90
2023-07-24T02:56:08.963Z,14.91
2023-07-24T02:58:36.150Z,15.01
2023-07-24T03:01:05.406Z,15.13
2023-07-24T03:03:32.668Z,15.22
2023-07-24T03:06:00.031Z,15.29
2023-07-24T03:08:27.502Z,15.37
2023-07-24T03:10:54.675Z,15.45
2023-07-24T03:13:21.907Z,15.51
2023-07-24T03:15:56.941Z,15.56
2023-07-24T03:18:24.842Z,15.63
2023-07-24T03:20:52.165Z,15.68
2023-07-24T03:23:19.393Z,15.70
2023-07-24T03:25:46.652Z,15.74
2023-07-24T03:28:13.828Z,15.75
2023-07-24T03:30:41.054Z,15.80
2023-07-24T03:33:09.021Z,15.84
2023-07-24T03:35:36.375Z,15.86
2023-07-24T03:38:04.696Z,15.89
2023-07-24T03:40:32.424Z,15.92
2023-07-24T03:42:59.632Z,15.96
2023-07-24T03:45:26.840Z,16.03
2023-07-24T03:47:54.097Z,16.11
2023-07-24T03:50:21.353Z,16.16
2023-07-24T03:52:48.535Z,16.23
2023-07-24T03:55:15.814Z,16.29
2023-07-24T03:57:43.068Z,16.36
2023-07-24T04:00:10.936Z,16.39
2023-07-24T04:02:41.000Z,16.43
2023-07-24T04:05:08.357Z,16.46
2023-07-24T04:07:35.552Z,16.48
2023-07-24T04:10:02.781Z,16.50
2023-07-24T04:12:30.239Z,16.52
2023-07-24T04:14:57.533Z,16.54
2023-07-24T04:17:24.926Z,16.55
2023-07-24T04:19:52.289Z,16.52
2023-07-24T04:22:19.475Z,16.51
2023-07-24T04:24:46.660Z,16.52
2023-07-24T04:27:14.036Z,16.53
2023-07-24T04:29:41.270Z,16.54
2023-07-24T04:32:08.815Z,16.56
2023-07-24T04:34:36.010Z,16.56
2023-07-24T04:37:03.303Z,16.57
2023-07-24T04:39:30.546Z,16.58
2023-07-24T04:41:57.718Z,16.59
2023-07-24T04:44:25.046Z,16.64
2023-07-24T04:46:52.293Z,16.68
2023-07-24T04:49:19.453Z,16.73
2023-07-24T04:51:46.617Z,16.79
2023-07-24T04:54:13.849Z,16.85
2023-07-24T04:56:41.035Z,16.91
2023-07-24T04:59:08.237Z,16.99
2023-07-24T05:01:35.433Z,17.06
2023-07-24T05:04:02.611Z,17.14
2023-07-24T05:06:30.224Z,17.22
2023-07-24T05:08:57.749Z,17.32
2023-07-24T05:11:24.956Z,17.40
2023-07-24T05:13:52.406Z,17.46
2023-07-24T05:16:19.826Z,17.54
2023-07-24T05:18:47.599Z,17.64
2023-07-24T05:21:14.979Z,17.73
2023-07-24T05:23:42.147Z,17.83
2023-07-24T05:26:09.311Z,17.93
2023-07-24T05:28:36.558Z,18.04
2023-07-24T05:31:04.401Z,18.14
2023-07-24T05:33:32.182Z,18.21
2023-07-24T05:36:00.567Z,18.29
2023-07-24T05:38:27.955Z,18.39
2023-07-24T05:40:55.897Z,18.49
2023-07-24T05:43:23.138Z,18.60
2023-07-24T05:45:54.882Z,18.72
2023-07-24T05:48:22.377Z,18.86
2023-07-24T05:50:49.598Z,19.00
2023-07-24T05:53:16.904Z,19.16
2023-07-24T05:55:44.535Z,19.30
2023-07-24T05:58:12.426Z,19.41
2023-07-24T06:00:39.728Z,19.56
2023-07-24T06:03:08.587Z,19.72
2023-07-24T06:05:36.262Z,19.85
2023-07-24T06:08:03.579Z,20.00
2023-07-24T06:10:32.093Z,20.12
2023-07-24T06:13:00.141Z,20.23
2023-07-24T06:15:27.419Z,20.35
2023-07-24T06:17:55.050Z,20.50
2023-07-24T06:20:22.685Z,20.63
2023-07-24T06:22:50.058Z,20.74
2023-07-24T06:25:17.962Z,20.85
2023-07-24T06:27:45.157Z,20.96
2023-07-24T06:30:16.272Z,21.04
2023-07-24T06:32:44.680Z,21.13
2023-07-24T06:35:13.435Z,21.19
2023-07-24T06:37:40.848Z,21.25
2023-07-24T06:40:08.647Z,21.29
2023-07-24T06:42:35.860Z,21.34
2023-07-24T06:45:03.673Z,21.37
2023-07-24T06:47:32.170Z,21.45
2023-07-24T06:49:59.385Z,21.53
2023-07-24T06:52:26.546Z,21.59
2023-07-24T06:54:53.735Z,21.63
2023-07-24T06:57:21.068Z,21.70
2023-07-24T06:59:48.301Z,21.77
2023-07-24T07:02:15.498Z,21.86
2023-07-24T07:04:42.796Z,21.97
2023-07-24T07:07:11.435Z,22.08
2023-07-24T07:09:38.876Z,22.10
2023-07-24T07:12:06.477Z,22.11
2023-07-24T07:14:33.704Z,22.17
2023-07-24T07:17:00.898Z,22.25
2023-07-24T07:19:28.347Z,22.36
2023-07-24T07:21:55.787Z,22.40
2023-07-24T07:24:23.233Z,22.41
2023-07-24T07:26:50.510Z,22.48
2023-07-24T07:29:17.707Z,22.56
2023-07-24T07:31:44.907Z,22.62
2023-07-24T07:34:12.188Z,22.68
2023-07-24T07:36:39.373Z,22.72
2023-07-24T07:39:06.563Z,22.78
2023-07-24T07:41:33.774Z,22.83
2023-07-24T07:44:00.945Z,22.91
2023-07-24T07:46:28.219Z,23.00
2023-07-24T07:48:55.727Z,23.04
2023-07-24T07:51:25.427Z,23.15
2023-07-24T07:53:52.819Z,23.23
2023-07-24T07:56:19.925Z,23.27
2023-07-24T07:58:47.092Z,23.35
2023-07-24T08:01:14.382Z,23.41
2023-07-24T08:03:42.383Z,23.49
2023-07-24T08:06:09.671Z,23.55
2023-07-24T08:08:36.890Z,23.60
2023-07-24T08:11:07.782Z,23.59
2023-07-24T08:13:35.429Z,23.64
2023-07-24T08:16:04.474Z,23.72
2023-07-24T08:18:32.053Z,23.82
2023-07-24T08:20:59.263Z,23.90
2023-07-24T08:23:26.607Z,23.93
2023-07-24T08:26:01.066Z,23.98
2023-07-24T08:32:26.267Z,24.22
2023-07-24T08:34:53.474Z,24.30
2023-07-24T08:37:20.967Z,24.37
2023-07-24T08:39:48.160Z,24.43
2023-07-24T08:42:15.514Z,24.52
2023-07-24T08:44:43.204Z,24.61
2023-07-24T08:47:14.056Z,24.69
2023-07-24T08:49:41.616Z,24.77
2023-07-24T08:52:10.640Z,24.77
2023-07-24T08:54:39.960Z,24.82
2023-07-24T08:57:07.400Z,24.73
2023-07-24T08:59:35.252Z,24.70
2023-07-24T09:02:02.455Z,24.78
2023-07-24T09:04:29.759Z,24.91
2023-07-24T09:06:57.611Z,24.95
2023-07-24T09:09:24.792Z,24.96
2023-07-24T09:11:53.297Z,25.02
2023-07-24T09:14:32.759Z,25.12
2023-07-24T09:17:10.667Z,25.14
2023-07-24T09:19:38.434Z,25.14
2023-07-24T09:22:14.023Z,25.21
2023-07-24T09:24:55.573Z,25.27
2023-07-24T09:27:32.158Z,25.30
2023-07-24T09:30:00.340Z,25.34
2023-07-24T09:32:28.518Z,25.41
2023-07-24T09:34:55.918Z,25.46
2023-07-24T09:37:31.383Z,25.52
2023-07-24T09:40:00.071Z,25.56
2023-07-24T09:42:48.487Z,25.62
2023-07-24T09:45:23.422Z,25.69
2023-07-24T09:47:56.647Z,25.69
2023-07-24T09:50:27.653Z,25.71
2023-07-24T09:52:54.756Z,25.78
2023-07-24T09:55:30.324Z,25.84
2023-07-24T09:57:57.621Z,25.88
2023-07-24T10:00:24.719Z,25.92
2023-07-24T10:02:51.935Z,26.00
2023-07-24T10:05:19.337Z,26.05
2023-07-24T10:07:47.179Z,26.15
2023-07-24T10:10:14.376Z,26.23
2023-07-24T10:12:41.566Z,26.27
2023-07-24T10:15:09.208Z,26.33
2023-07-24T10:17:37.679Z,26.33
2023-07-24T10:20:09.543Z,26.40
2023-07-24T10:22:39.021Z,26.43
2023-07-24T10:25:07.231Z,26.48
2023-07-24T10:27:46.847Z,26.60
2023-07-24T10:30:32.604Z,26.69
2023-07-24T10:33:12.814Z,26.71
2023-07-24T10:36:08.629Z,26.68
2023-07-24T10:38:39.854Z,26.67
2023-07-24T10:41:08.574Z,26.72
2023-07-24T10:43:46.000Z,26.83
2023-07-24T10:46:16.113Z,26.92
2023-07-24T10:48:47.953Z,26.93
2023-07-24T10:51:15.686Z,26.93
2023-07-24T10:53:48.753Z,26.93
2023-07-24T10:56:16.777Z,26.92
2023-07-24T10:58:44.100Z,27.00
2023-07-24T11:01:15.501Z,26.98
2023-07-24T11:03:43.082Z,26.88
2023-07-24T11:06:17.833Z,26.76
2023-07-24T11:11:59.885Z,26.50
2023-07-24T11:14:27.045Z,26.75
2023-07-24T11:16:54.207Z,26.86
2023-07-24T11:19:25.656Z,26.85
2023-07-24T11:21:52.828Z,26.88
2023-07-24T11:24:20.084Z,26.91
2023-07-24T11:26:47.319Z,26.90
2023-07-24T11:29:14.799Z,27.01
2023-07-24T11:31:42.038Z,27.19
2023-07-24T11:34:09.190Z,27.31
2023-07-24T11:36:36.361Z,27.39
2023-07-24T11:39:04.787Z,27.45
2023-07-24T11:41:32.141Z,27.46
2023-07-24T11:43:59.576Z,27.51
2023-07-24T11:46:27.794Z,27.59
2023-07-24T11:48:57.889Z,27.57
2023-07-24T11:51:30.475Z,27.61
2023-07-24T11:54:08.757Z,27.75
2023-07-24T11:56:36.429Z,27.90
2023-07-24T11:59:16.716Z,27.86
2023-07-24T12:01:50.984Z,27.81
2023-07-24T12:04:18.234Z,27.82
2023-07-24T12:06:45.666Z,27.75
2023-07-24T12:09:13.024Z,27.68
2023-07-24T12:11:46.698Z,27.73
2023-07-24T12:14:15.595Z,27.75
2023-07-24T12:16:42.855Z,27.79
2023-07-24T12:19:09.974Z,27.83
2023-07-24T12:21:37.133Z,27.81
2023-07-24T12:24:04.944Z,27.82
2023-07-24T12:26:32.189Z,27.90
2023-07-24T12:29:01.484Z,27.99
2023-07-24T12:31:29.036Z,27.98
2023-07-24T12:33:57.595Z,27.91
2023-07-24T12:36:25.082Z,27.91
2023-07-24T12:38:52.755Z,27.93
2023-07-24T12:41:20.011Z,27.97
2023-07-24T12:43:47.144Z,28.04
2023-07-24T12:46:14.514Z,28.18
2023-07-24T12:48:41.743Z,28.26
2023-07-24T12:51:08.958Z,28.27
2023-07-24T12:53:40.775Z,28.28
2023-07-24T12:56:13.473Z,28.35
2023-07-24T12:58:40.651Z,28.40
2023-07-24T13:01:08.071Z,28.41
2023-07-24T13:03:35.809Z,28.38
2023-07-24T13:06:03.290Z,28.32
2023-07-24T13:08:30.471Z,28.27
2023-07-24T13:10:57.624Z,28.24
2023-07-24T13:13:25.263Z,28.22
2023-07-24T13:15:52.551Z,28.19
2023-07-24T13:18:28.586Z,28.19
2023-07-24T13:20:57.475Z,28.18
2023-07-24T13:23:24.660Z,28.22
2023-07-24T13:25:56.149Z,28.22
2023-07-24T13:28:23.425Z,28.22
2023-07-24T13:30:50.576Z,28.29
2023-07-24T13:33:17.940Z,28.34
2023-07-24T13:35:45.307Z,28.30
2023-07-24T13:38:13.288Z,28.25
2023-07-24T13:40:40.516Z,28.24
2023-07-24T13:43:07.641Z,28.20
2023-07-24T13:45:34.920Z,28.24
2023-07-24T13:48:03.456Z,28.36
2023-07-24T13:50:30.821Z,28.45
2023-07-24T13:52:57.912Z,28.46
2023-07-24T13:55:25.120Z,28.33
2023-07-24T13:57:52.214Z,28.26
2023-07-24T14:00:19.460Z,28.24
2023-07-24T14:02:46.955Z,28.22
2023-07-24T14:05:14.819Z,28.14
2023-07-24T14:07:41.972Z,28.05
2023-07-24T14:10:09.607Z,27.97
2023-07-24T14:12:36.847Z,27.90
2023-07-24T14:15:04.827Z,27.87
2023-07-24T14:17:32.277Z,27.82
2023-07-24T14:19:59.666Z,27.75
2023-07-24T14:22:28.468Z,27.71
2023-07-24T14:24:55.956Z,27.68
2023-07-24T14:27:23.103Z,27.66
2023-07-24T14:29:50.231Z,27.67
2023-07-24T14:32:17.357Z,27.68
2023-07-24T14:34:44.470Z,27.70
2023-07-24T14:37:11.581Z,27.77
2023-07-24T14:39:38.685Z,27.81
2023-07-24T14:42:06.225Z,27.84
2023-07-24T14:44:33.339Z,27.87
2023-07-24T14:47:00.467Z,27.91
2023-07-24T14:49:27.740Z,27.90
2023-07-24T14:51:54.977Z,27.84
2023-07-24T14:54:22.138Z,27.73
2023-07-24T14:56:57.396Z,27.62
2023-07-24T14:59:26.539Z,27.58
2023-07-24T15:01:53.700Z,27.52
2023-07-24T15:04:20.999Z,27.44
2023-07-24T15:06:48.103Z,27.38
2023-07-24T15:09:15.334Z,27.35
2023-07-24T15:11:42.568Z,27.35
2023-07-24T15:14:09.876Z,27.34
2023-07-24T15:16:37.358Z,27.35
2023-07-24T15:19:04.612Z,27.38
2023-07-24T15:21:31.881Z,27.42
2023-07-24T15:23:59.258Z,27.42
2023-07-24T15:26:26.507Z,27.46
2023-07-24T15:28:53.752Z,27.46
2023-07-24T15:31:20.956Z,27.43
2023-07-24T15:33:48.083Z,27.40
2023-07-24T15:36:15.520Z,27.41
2023-07-24T15:38:42.882Z,27.41
2023-07-24T15:41:10.156Z,27.38
2023-07-24T15:43:37.336Z,27.35
2023-07-24T15:46:04.630Z,27.32
2023-07-24T15:48:31.962Z,27.33
2023-07-24T15:50:59.353Z,27.31
2023-07-24T15:53:26.597Z,27.27
2023-07-24T15:55:55.016Z,27.24
2023-07-24T15:58:22.193Z,27.24
2023-07-24T16:00:49.365Z,27.24
2023-07-24T16:03:16.693Z,27.22
2023-07-24T16:05:43.998Z,27.16
2023-07-24T16:08:11.093Z,27.11
2023-07-24T16:10:38.223Z,27.08
2023-07-24T16:13:05.369Z,27.05
2023-07-24T16:20:35.496Z,26.97
2023-07-24T16:23:03.109Z,26.95
2023-07-24T16:25:31.181Z,26.92
2023-07-24T16:27:59.340Z,26.87
2023-07-24T16:32:54.646Z,26.78
2023-07-24T16:35:21.830Z,26.73
2023-07-24T16:37:49.240Z,26.68
2023-07-24T16:40:16.479Z,26.62
2023-07-24T16:42:44.255Z,26.57
2023-07-24T16:45:29.227Z,26.50
2023-07-24T16:48:03.071Z,26.38
2023-07-24T16:50:30.872Z,26.33
2023-07-24T16:52:58.535Z,26.27
2023-07-24T16:55:27.886Z,26.20
2023-07-24T16:57:57.114Z,26.12
2023-07-24T17:00:24.301Z,26.03
2023-07-24T17:02:51.623Z,25.94
2023-07-24T17:05:18.937Z,25.87
2023-07-24T17:07:46.064Z,25.76
2023-07-24T17:10:14.607Z,25.67
2023-07-24T17:12:41.751Z,25.60
2023-07-24T17:15:09.181Z,25.50
2023-07-24T17:17:36.350Z,25.40
2023-07-24T17:20:03.878Z,25.34
2023-07-24T17:22:31.015Z,25.28
2023-07-24T17:24:58.418Z,25.25
2023-07-24T17:27:26.402Z,25.19
2023-07-24T17:29:53.809Z,25.12
2023-07-24T17:32:23.225Z,25.05
2023-07-24T17:34:50.354Z,25.02
2023-07-24T17:37:28.458Z,24.94
2023-07-24T17:40:04.304Z,24.90
2023-07-24T17:42:31.619Z,24.81
2023-07-24T17:44:58.721Z,24.74
2023-07-24T17:47:25.947Z,24.68
2023-07-24T17:50:05.248Z,24.62
2023-07-24T17:52:34.846Z,24.58
2023-07-24T17:55:02.135Z,24.53
2023-07-24T17:57:29.595Z,24.51
2023-07-24T17:59:56.741Z,24.50
2023-07-24T18:02:23.995Z,24.47
2023-07-24T18:04:51.333Z,24.47
2023-07-24T18:07:18.452Z,24.44
2023-07-24T18:09:45.633Z,24.43
2023-07-24T18:12:13.308Z,24.44
2023-07-24T18:14:40.421Z,24.40
2023-07-24T18:17:07.509Z,24.35
2023-07-24T18:19:34.920Z,24.30
2023-07-24T18:22:02.055Z,24.22
2023-07-24T18:24:29.346Z,24.19
2023-07-24T18:26:56.644Z,24.18
2023-07-24T18:29:23.761Z,24.16
2023-07-24T18:31:50.944Z,24.14
2023-07-24T18:34:18.094Z,24.12
2023-07-24T18:36:45.247Z,24.08
2023-07-24T18:39:12.346Z,24.03
2023-07-24T18:41:39.467Z,23.99
2023-07-24T18:44:06.563Z,23.95
2023-07-24T18:46:33.711Z,23.91
2023-07-24T18:49:00.974Z,23.85
2023-07-24T18:51:28.090Z,23.80
2023-07-24T18:53:55.235Z,23.76
2023-07-24T18:56:24.391Z,23.74
2023-07-24T18:58:51.778Z,23.70
2023-07-24T19:01:18.924Z,23.67
2023-07-24T19:03:46.050Z,23.64
2023-07-24T19:06:14.675Z,23.62
2023-07-24T19:08:41.865Z,23.57
2023-07-24T19:11:08.995Z,23.52
2023-07-24T19:13:37.173Z,23.49
2023-07-24T19:16:04.709Z,23.47
2023-07-24T19:18:31.987Z,23.45
2023-07-24T19:20:59.275Z,23.43
2023-07-24T19:23:26.404Z,23.42
2023-07-24T19:25:53.492Z,23.40
2023-07-24T19:28:20.657Z,23.38
2023-07-24T19:30:57.617Z,23.36
2023-07-24T19:33:25.144Z,23.34
2023-07-24T19:35:57.730Z,23.32
2023-07-24T19:38:25.230Z,23.32
2023-07-24T19:40:59.245Z,23.30
2023-07-24T19:43:26.377Z,23.28
2023-07-24T19:45:53.875Z,23.24
2023-07-24T19:48:21.884Z,23.22
2023-07-24T19:50:52.693Z,23.20
2023-07-24T19:53:20.064Z,23.18
2023-07-24T19:55:50.406Z,23.17
2023-07-24T19:58:30.763Z,23.16
2023-07-24T20:01:00.873Z,23.15
2023-07-24T20:03:28.766Z,23.15
2023-07-24T20:05:57.143Z,23.15
2023-07-24T20:08:24.522Z,23.13
2023-07-24T20:10:51.682Z,23.12
2023-07-24T20:13:19.027Z,23.09
2023-07-24T20:15:46.554Z,23.05
2023-07-24T20:18:13.890Z,23.04
2023-07-24T20:20:47.484Z,23.03
2023-07-24T20:23:14.959Z,23.01
2023-07-24T20:25:42.479Z,22.99
2023-07-24T20:28:09.630Z,22.96
2023-07-24T20:30:36.877Z,22.95
2023-07-24T20:33:04.250Z,22.95
2023-07-24T20:35:31.640Z,22.94
2023-07-24T20:37:59.305Z,22.93
2023-07-24T20:40:26.899Z,22.92
2023-07-24T20:42:54.223Z,22.91
2023-07-24T20:45:21.377Z,22.90
2023-07-24T20:47:48.644Z,22.87
2023-07-24T20:50:15.875Z,22.85
2023-07-24T20:52:43.351Z,22.84
2023-07-24T20:55:10.542Z,22.83
2023-07-24T21:06:34.747Z,22.47
2023-07-24T21:09:01.992Z,22.61
2023-07-24T21:11:29.520Z,22.60
2023-07-24T21:13:56.953Z,22.52
2023-07-24T21:16:24.205Z,22.49
2023-07-24T21:18:51.439Z,22.52
2023-07-24T21:21:18.853Z,22.52
2023-07-24T21:23:46.091Z,22.56
2023-07-24T21:26:13.258Z,22.57
2023-07-24T21:28:40.529Z,22.60
2023-07-24T21:31:11.732Z,22.63
2023-07-24T21:33:39.775Z,22.64
2023-07-24T21:36:06.982Z,22.65
2023-07-24T21:38:34.255Z,22.66
2023-07-24T21:41:01.787Z,22.65
2023-07-24T21:43:29.109Z,22.63
2023-07-24T21:45:56.267Z,22.61
2023-07-24T21:48:23.489Z,22.58
2023-07-24T21:50:52.555Z,22.53
2023-07-24T21:53:20.131Z,22.51
2023-07-24T21:55:47.318Z,22.49
2023-07-24T21:58:14.713Z,22.47
2023-07-24T22:00:41.832Z,22.46
2023-07-24T22:03:09.083Z,22.46
2023-07-24T22:05:36.265Z,22.45
2023-07-24T22:08:03.963Z,22.41
2023-07-24T22:10:31.157Z,22.37
2023-07-24T22:12:58.309Z,22.38
2023-07-24T22:15:25.617Z,22.38
2023-07-24T22:17:52.821Z,22.37
2023-07-24T22:20:34.714Z,22.35
2023-07-24T22:23:07.640Z,22.34
2023-07-24T22:25:34.789Z,22.34
2023-07-24T22:28:01.959Z,22.34
2023-07-24T22:30:29.253Z,22.28
2023-07-24T22:32:56.489Z,22.26
2023-07-24T22:35:23.768Z,22.22
2023-07-24T22:37:50.937Z,22.20
2023-07-24T22:40:18.236Z,22.19
2023-07-24T22:42:45.906Z,22.19
2023-07-24T22:45:13.389Z,22.16
2023-07-24T22:47:40.660Z,22.11
2023-07-24T22:50:07.997Z,22.02
2023-07-24T22:52:35.184Z,21.99
2023-07-24T22:55:02.363Z,21.97
2023-07-24T22:57:29.514Z,21.96
2023-07-24T22:59:56.693Z,21.94
2023-07-24T23:02:25.097Z,21.90
2023-07-24T23:04:52.338Z,21.87
2023-07-24T23:07:19.557Z,21.86
2023-07-24T23:09:46.722Z,21.85
2023-07-24T23:12:13.903Z,21.82
2023-07-24T23:14:41.059Z,21.81
2023-07-24T23:17:08.218Z,21.80
2023-07-24T23:19:35.478Z,21.81
2023-07-24T23:22:02.640Z,21.81
2023-07-24T23:24:29.877Z,21.79
2023-07-24T23:26:57.194Z,21.79
2023-07-24T23:29:24.369Z,21.78
2023-07-24T23:31:55.416Z,21.78
2023-07-24T23:34:22.767Z,21.76
2023-07-24T23:36:49.885Z,21.74
2023-07-24T23:39:17.253Z,21.75
2023-07-24T23:41:44.448Z,21.76
2023-07-24T23:44:11.959Z,21.79
2023-07-24T23:46:41.433Z,21.82
2023-07-24T23:49:08.655Z,21.82
2023-07-24T23:51:35.814Z,21.80
2023-07-24T23:54:02.990Z,21.81
2023-07-24T23:56:30.242Z,21.82
2023-07-24T23:58:57.445Z,21.82
